Bookmark and Share
Track history (hours):
 

Nagaleader

Last reported at 2014-Apr-16 21:33 UTC. Time now 2014-Apr-16 22:29 UTC.
Position N 26°00' E 119°29'.

Length 113 m; draft 5.1 m.

Type: Cargo ship. MMSI: 477926700.

NotesDate/timePositionNaut miles runAvg speedWind from/ knotsBaromVisibWave heightAir tempDewpointWater temp
2014-Apr-16 21:33N 26°00' E 119°29'0 0.0
2014-Apr-16 20:33N 26°00' E 119°29'0 0.1
2014-Apr-16 19:33N 26°00' E 119°29'0 0.1
2014-Apr-16 18:33N 26°00' E 119°29'0 0.0
2014-Apr-16 17:33N 26°00' E 119°29'0 0.0
2014-Apr-16 16:33N 26°00' E 119°29'0 0.0
2014-Apr-16 15:33N 26°00' E 119°29'0 0.0
2014-Apr-16 14:33N 26°00' E 119°29'0 0.0
2014-Apr-16 13:33N 26°00' E 119°29'0 0.0
2014-Apr-16 12:33N 26°00' E 119°29'0 0.0
2014-Apr-16 11:33N 26°00' E 119°29'0 0.0
2014-Apr-16 10:33N 26°00' E 119°29'0 0.0
2014-Apr-16 09:33N 26°00' E 119°29'0 0.0
2014-Apr-16 08:32N 26°00' E 119°29'0 0.0
2014-Apr-16 07:33N 26°00' E 119°29'0 0.0
2014-Apr-16 06:33N 26°00' E 119°29'0 0.0
2014-Apr-16 05:33N 26°00' E 119°29'0 0.0
2014-Apr-16 04:33N 26°00' E 119°29'0 0.0
2014-Apr-16 03:33N 26°00' E 119°29'0 0.0
2014-Apr-16 02:32N 26°00' E 119°29'0 0.0
2014-Apr-16 01:33N 26°00' E 119°29'0 0.0
2014-Apr-16 00:33N 26°00' E 119°29'0 0.0
2014-Apr-15 23:33N 26°00' E 119°29'0 0.0
2014-Apr-15 22:33N 26°00' E 119°29'0 0.0
2014-Apr-15 21:33N 26°00' E 119°29'0 0.0
2014-Apr-15 20:33N 26°00' E 119°29'0 0.0
2014-Apr-15 19:33N 26°00' E 119°29'0 0.0
2014-Apr-15 18:33N 26°00' E 119°29'0 0.0
2014-Apr-15 17:33N 26°00' E 119°29'0 0.0
2014-Apr-15 16:33N 26°00' E 119°29'0 0.0
2014-Apr-15 15:33N 26°00' E 119°29'0 0.0
2014-Apr-15 14:33N 26°00' E 119°29'0 0.0
2014-Apr-15 12:34N 26°00' E 119°29'0 0.0
2014-Apr-15 11:34N 26°00' E 119°29'4 4.5
2014-Apr-15 10:34N 26°04' E 119°31'55 7.8
2014-Apr-15 03:31N 25°10' E 119°40'139 8.2
2014-Apr-14 10:33N 22°53' E 120°04'1312.9
2014-Apr-14 09:33N 22°41' E 120°10'1010.1
2014-Apr-14 08:33N 22°35' E 120°18'3 2.5
2014-Apr-14 07:32N 22°33' E 120°20'0 0.0
2014-Apr-14 06:32N 22°33' E 120°20'0 0.0
2014-Apr-14 05:32N 22°33' E 120°20'0 0.0
2014-Apr-13 22:32N 22°33' E 120°20'0 0.0
2014-Apr-13 21:26N 22°33' E 120°20'0 0.0
2014-Apr-13 19:32N 22°33' E 120°20'0 0.1
2014-Apr-13 18:31N 22°33' E 120°20'8 8.7
2014-Apr-13 17:33N 22°35' E 120°11'1313.3
2014-Apr-13 16:33N 22°47' E 120°06'15611.1
2014-Apr-13 02:30N 25°23' E 119°59'4511.3
2014-Apr-12 22:30N 26°05' E 119°43'9 9.1
2014-Apr-12 21:33N 26°08' E 119°34'9 8.8
2014-Apr-12 20:33N 26°00' E 119°29'0 0.0
2014-Apr-12 19:30N 26°00' E 119°29'0 0.0
2014-Apr-12 18:30N 26°00' E 119°29'0 0.0
2014-Apr-12 17:30N 26°00' E 119°29'0 0.0
2014-Apr-12 16:30N 26°00' E 119°29'0 0.0
2014-Apr-12 15:30N 26°00' E 119°29'0 0.0
2014-Apr-12 13:30N 26°00' E 119°29'0 0.0
2014-Apr-12 12:12N 26°00' E 119°29'0 0.0
2014-Apr-12 11:12N 26°00' E 119°29'0 0.0
2014-Apr-12 10:30N 26°00' E 119°29'0 0.0
2014-Apr-12 09:30N 26°00' E 119°29'0 0.0
2014-Apr-12 08:30N 26°00' E 119°29'0 0.0
2014-Apr-12 07:30N 26°00' E 119°29'0 0.0
2014-Apr-12 06:30N 26°00' E 119°29'3 3.4
2014-Apr-12 05:33N 26°03' E 119°30'11 7.7
2014-Apr-12 04:05N 26°06' E 119°43'3311.0
2014-Apr-12 01:03N 25°35' E 119°57'612.3
2014-Apr-12 00:32N 25°29' E 119°58'1311.4
2014-Apr-11 23:25N 25°16' E 119°58'1113.3
2014-Apr-11 22:33N 25°04' E 119°58'1313.4
2014-Apr-11 21:33N 24°51' E 119°58'1313.0
2014-Apr-11 20:34N 24°38' E 119°57'1313.1
2014-Apr-11 19:33N 24°25' E 119°56'1313.1
2014-Apr-11 18:33N 24°12' E 119°56'1312.7
2014-Apr-11 17:32N 23°59' E 119°55'1212.4
2014-Apr-11 16:33N 23°47' E 119°55'1312.5
2014-Apr-11 15:33N 23°34' E 119°55'1312.8
2014-Apr-11 14:32N 23°21' E 119°56'2512.9
2014-Apr-11 12:33N 22°57' E 120°02'1212.4
2014-Apr-11 11:33N 22°45' E 120°06'1212.1
2014-Apr-11 10:33N 22°34' E 120°13'7 3.4
2014-Apr-11 08:29N 22°33' E 120°20'0 0.0
2014-Apr-11 07:17N 22°33' E 120°20'0 0.0
2014-Apr-11 06:29N 22°33' E 120°20'0 0.0
2014-Apr-11 05:29N 22°33' E 120°20'0 0.0
2014-Apr-11 04:29N 22°33' E 120°20'0 0.0
2014-Apr-11 03:29N 22°33' E 120°20'0 0.0
2014-Apr-11 02:29N 22°33' E 120°20'0 0.0
2014-Apr-11 01:23N 22°33' E 120°20'0 0.0
2014-Apr-10 23:11N 22°33' E 120°20'0 0.0
2014-Apr-10 22:29N 22°33' E 120°20'0 0.0
2014-Apr-10 21:29N 22°33' E 120°20'0 0.0
2014-Apr-10 20:29N 22°33' E 120°20'0 0.4
2014-Apr-10 19:33N 22°33' E 120°20'4 3.8
2014-Apr-10 18:33N 22°32' E 120°15'8 8.2
2014-Apr-10 17:33N 22°38' E 120°09'1413.4
2014-Apr-10 16:31N 22°51' E 120°04'2613.0
2014-Apr-10 14:32N 23°16' E 119°57'1212.8
2014-Apr-10 13:33N 23°29' E 119°55'1211.9
2014-Apr-10 12:31N 23°41' E 119°55'1211.4
2014-Apr-10 11:28N 23°53' E 119°55'1111.5
2014-Apr-10 10:33N 24°04' E 119°56'1211.5
2014-Apr-10 09:31N 24°16' E 119°56'1211.9
2014-Apr-10 08:32N 24°27' E 119°57'1212.5
2014-Apr-10 07:33N 24°40' E 119°57'3712.1
2014-Apr-10 04:28N 25°17' E 119°58'1512.6
2014-Apr-10 03:16N 25°32' E 119°58'2313.0
2014-Apr-10 01:31N 25°54' E 119°52'1311.2
2014-Apr-10 00:22N 26°05' E 119°45'910.3
2014-Apr-09 23:29N 26°08' E 119°36'9 9.8
2014-Apr-09 22:33N 26°01' E 119°29'1 0.7
2014-Apr-09 21:31N 26°00' E 119°29'0 0.0
2014-Apr-09 20:31N 26°00' E 119°29'0 0.0
2014-Apr-09 19:25N 26°00' E 119°29'0 0.0
2014-Apr-09 18:25N 26°00' E 119°29'0 0.0
2014-Apr-09 17:31N 26°00' E 119°29'0 0.0
2014-Apr-09 16:31N 26°00' E 119°29'0 0.0
2014-Apr-09 15:31N 26°00' E 119°29'0 0.0
2014-Apr-09 14:31N 26°00' E 119°29'0 0.0
2014-Apr-09 13:25N 26°00' E 119°29'0 0.0
2014-Apr-09 12:31N 26°00' E 119°29'0 0.0
2014-Apr-09 11:25N 26°00' E 119°29'0 0.0
2014-Apr-09 10:24N 26°00' E 119°29'0 0.0
2014-Apr-09 09:30N 26°00' E 119°29'0 0.0
2014-Apr-09 07:28N 26°00' E 119°29'0 0.0
2014-Apr-09 06:28N 26°00' E 119°29'0 0.0
2014-Apr-09 05:28N 26°00' E 119°29'0 0.0
2014-Apr-09 04:28N 26°00' E 119°29'0 0.0
2014-Apr-09 03:28N 26°00' E 119°29'0 0.0
2014-Apr-09 02:28N 26°00' E 119°29'0 0.0
2014-Apr-09 01:22N 26°00' E 119°29'0 0.0
2014-Apr-09 00:28N 26°00' E 119°29'0 0.0
2014-Apr-08 23:28N 26°00' E 119°29'0 0.0
2014-Apr-08 22:34N 26°00' E 119°29'0 0.0
2014-Apr-08 21:34N 26°00' E 119°29'0 0.0
2014-Apr-08 20:33N 26°00' E 119°29'0 0.0
2014-Apr-08 19:27N 26°00' E 119°29'0 0.0
2014-Apr-08 18:27N 26°00' E 119°29'0 0.0
2014-Apr-08 17:33N 26°00' E 119°29'0 0.0
2014-Apr-08 16:33N 26°00' E 119°29'0 0.0
2014-Apr-08 15:27N 26°00' E 119°29'0 0.0
2014-Apr-08 14:33N 26°00' E 119°29'0 0.0
2014-Apr-08 13:27N 26°00' E 119°29'2 2.4
2014-Apr-08 12:34N 26°02' E 119°30'11 8.6
2014-Apr-08 11:20N 26°06' E 119°41'18712.6
2014-Apr-07 20:29N 22°59' E 120°00'1313.6
2014-Apr-07 19:33N 22°48' E 120°06'20 9.8
2014-Apr-07 17:33N 22°33' E 120°20'0 0.0
2014-Apr-07 16:30N 22°33' E 120°20'0 0.0
2014-Apr-07 15:18N 22°33' E 120°20'0 0.1
2014-Apr-07 14:30N 22°33' E 120°20'0 0.1
2014-Apr-07 13:30N 22°33' E 120°20'0 0.1
2014-Apr-07 12:17N 22°33' E 120°20'0 0.0
2014-Apr-07 11:29N 22°33' E 120°20'0 0.0
2014-Apr-07 10:05N 22°33' E 120°20'0 0.0
2014-Apr-07 08:29N 22°33' E 120°20'0 0.0
2014-Apr-07 07:29N 22°33' E 120°20'0 0.0
2014-Apr-07 05:23N 22°33' E 120°20'0 0.0
2014-Apr-07 04:23N 22°33' E 120°20'0 0.0
2014-Apr-07 03:29N 22°33' E 120°20'0 0.1
2014-Apr-07 02:15N 22°33' E 120°20'3 4.1
2014-Apr-07 01:30N 22°32' E 120°17'0 0.0
2014-Apr-07 00:30N 22°32' E 120°17'0 0.0
2014-Apr-06 23:24N 22°32' E 120°17'0 0.0
2014-Apr-06 22:24N 22°32' E 120°17'  

Dump ship's entire track history

sailing weather and tide predictions

Nagaleader — VRDD5 — position and weather